sensor_id;sensor_type;location;lat;lon;timestamp;temperature;humidity
28524;DHT22;15734;50.904;6.922;2022-09-21T00:01:59;9.00;99.90
28524;DHT22;15734;50.904;6.922;2022-09-21T00:04:24;8.90;99.90
28524;DHT22;15734;50.904;6.922;2022-09-21T00:06:50;8.90;99.90
28524;DHT22;15734;50.904;6.922;2022-09-21T00:09:15;8.90;99.90
28524;DHT22;15734;50.904;6.922;2022-09-21T00:11:41;8.90;99.90
28524;DHT22;15734;50.904;6.922;2022-09-21T00:14:10;8.90;99.90
28524;DHT22;15734;50.904;6.922;2022-09-21T00:16:37;8.80;99.90
28524;DHT22;15734;50.904;6.922;2022-09-21T00:19:03;8.80;99.90
28524;DHT22;15734;50.904;6.922;2022-09-21T00:21:28;8.70;99.90
28524;DHT22;15734;50.904;6.922;2022-09-21T00:23:54;8.60;99.90
28524;DHT22;15734;50.904;6.922;2022-09-21T00:26:22;8.50;99.90
28524;DHT22;15734;50.904;6.922;2022-09-21T00:28:58;8.50;99.90
28524;DHT22;15734;50.904;6.922;2022-09-21T00:31:25;8.40;99.90
28524;DHT22;15734;50.904;6.922;2022-09-21T00:33:51;8.50;99.90
28524;DHT22;15734;50.904;6.922;2022-09-21T00:36:19;8.50;99.90
28524;DHT22;15734;50.904;6.922;2022-09-21T00:38:49;8.50;99.90
28524;DHT22;15734;50.904;6.922;2022-09-21T00:41:15;8.60;99.90
28524;DHT22;15734;50.904;6.922;2022-09-21T00:44:09;8.50;99.90
28524;DHT22;15734;50.904;6.922;2022-09-21T00:46:36;8.40;99.90
28524;DHT22;15734;50.904;6.922;2022-09-21T00:49:03;8.30;99.90
28524;DHT22;15734;50.904;6.922;2022-09-21T00:51:29;8.30;99.90
28524;DHT22;15734;50.904;6.922;2022-09-21T00:54:01;8.30;99.90
28524;DHT22;15734;50.904;6.922;2022-09-21T00:56:27;8.30;99.90
28524;DHT22;15734;50.904;6.922;2022-09-21T00:58:53;8.20;99.90
28524;DHT22;15734;50.904;6.922;2022-09-21T01:01:19;8.30;99.90
28524;DHT22;15734;50.904;6.922;2022-09-21T01:03:47;8.30;99.90
28524;DHT22;15734;50.904;6.922;2022-09-21T01:06:16;8.30;99.90
28524;DHT22;15734;50.904;6.922;2022-09-21T01:08:44;8.30;99.90
28524;DHT22;15734;50.904;6.922;2022-09-21T01:14:24;8.10;99.90
28524;DHT22;15734;50.904;6.922;2022-09-21T01:17:01;8.10;99.90
28524;DHT22;15734;50.904;6.922;2022-09-21T01:22:58;8.00;99.90
28524;DHT22;15734;50.904;6.922;2022-09-21T01:28:07;8.00;99.90
28524;DHT22;15734;50.904;6.922;2022-09-21T01:30:39;8.00;99.90
28524;DHT22;15734;50.904;6.922;2022-09-21T01:33:14;8.00;99.90
28524;DHT22;15734;50.904;6.922;2022-09-21T01:35:51;8.00;99.90
28524;DHT22;15734;50.904;6.922;2022-09-21T01:38:19;7.90;99.90
28524;DHT22;15734;50.904;6.922;2022-09-21T01:40:50;8.00;99.90
28524;DHT22;15734;50.904;6.922;2022-09-21T01:43:27;8.00;99.90
28524;DHT22;15734;50.904;6.922;2022-09-21T01:45:56;8.00;99.90
28524;DHT22;15734;50.904;6.922;2022-09-21T01:48:26;8.00;99.90
28524;DHT22;15734;50.904;6.922;2022-09-21T01:50:56;8.00;99.90
28524;DHT22;15734;50.904;6.922;2022-09-21T01:53:27;8.00;99.90
28524;DHT22;15734;50.904;6.922;2022-09-21T01:55:58;8.00;99.90
28524;DHT22;15734;50.904;6.922;2022-09-21T02:00:58;8.00;99.90
28524;DHT22;15734;50.904;6.922;2022-09-21T02:06:03;8.00;99.90
28524;DHT22;15734;50.904;6.922;2022-09-21T02:08:30;7.90;99.90
28524;DHT22;15734;50.904;6.922;2022-09-21T02:10:59;7.80;99.90
28524;DHT22;15734;50.904;6.922;2022-09-21T02:13:25;7.70;99.90
28524;DHT22;15734;50.904;6.922;2022-09-21T02:18:56;7.60;99.90
28524;DHT22;15734;50.904;6.922;2022-09-21T02:21:48;7.60;99.90
28524;DHT22;15734;50.904;6.922;2022-09-21T02:27:16;7.50;99.90
28524;DHT22;15734;50.904;6.922;2022-09-21T02:30:13;7.50;99.90
28524;DHT22;15734;50.904;6.922;2022-09-21T02:35:30;7.50;99.90
28524;DHT22;15734;50.904;6.922;2022-09-21T02:43:49;7.50;99.90
28524;DHT22;15734;50.904;6.922;2022-09-21T02:46:25;7.50;99.90
28524;DHT22;15734;50.904;6.922;2022-09-21T02:48:55;7.50;99.90
28524;DHT22;15734;50.904;6.922;2022-09-21T02:51:28;7.50;99.90
28524;DHT22;15734;50.904;6.922;2022-09-21T02:53:56;7.40;99.90
28524;DHT22;15734;50.904;6.922;2022-09-21T02:56:24;7.40;99.90
28524;DHT22;15734;50.904;6.922;2022-09-21T02:58:53;7.40;99.90
28524;DHT22;15734;50.904;6.922;2022-09-21T03:01:21;7.40;99.90
28524;DHT22;15734;50.904;6.922;2022-09-21T03:03:47;7.40;99.90
28524;DHT22;15734;50.904;6.922;2022-09-21T03:06:13;7.40;99.90
28524;DHT22;15734;50.904;6.922;2022-09-21T03:08:39;7.50;99.90
28524;DHT22;15734;50.904;6.922;2022-09-21T03:11:05;7.50;99.90
28524;DHT22;15734;50.904;6.922;2022-09-21T03:13:30;7.50;99.90
28524;DHT22;15734;50.904;6.922;2022-09-21T03:16:00;7.50;99.90
28524;DHT22;15734;50.904;6.922;2022-09-21T03:18:27;7.60;99.90
28524;DHT22;15734;50.904;6.922;2022-09-21T03:20:52;7.60;99.90
28524;DHT22;15734;50.904;6.922;2022-09-21T03:23:18;7.60;99.90
28524;DHT22;15734;50.904;6.922;2022-09-21T03:25:44;7.60;99.90
28524;DHT22;15734;50.904;6.922;2022-09-21T03:28:10;7.50;99.90
28524;DHT22;15734;50.904;6.922;2022-09-21T03:30:36;7.50;99.90
28524;DHT22;15734;50.904;6.922;2022-09-21T03:33:02;7.50;99.90
28524;DHT22;15734;50.904;6.922;2022-09-21T03:35:30;7.50;99.90
28524;DHT22;15734;50.904;6.922;2022-09-21T03:37:56;7.40;99.90
28524;DHT22;15734;50.904;6.922;2022-09-21T03:40:22;7.40;99.90
28524;DHT22;15734;50.904;6.922;2022-09-21T03:42:48;7.40;99.90
28524;DHT22;15734;50.904;6.922;2022-09-21T03:45:13;7.40;99.90
28524;DHT22;15734;50.904;6.922;2022-09-21T03:47:39;7.40;99.90
28524;DHT22;15734;50.904;6.922;2022-09-21T03:50:06;7.40;99.90
28524;DHT22;15734;50.904;6.922;2022-09-21T03:52:32;7.40;99.90
28524;DHT22;15734;50.904;6.922;2022-09-21T03:54:57;7.30;99.90
28524;DHT22;15734;50.904;6.922;2022-09-21T03:57:23;7.20;99.90
28524;DHT22;15734;50.904;6.922;2022-09-21T03:59:49;7.20;99.90
28524;DHT22;15734;50.904;6.922;2022-09-21T04:02:15;7.20;99.90
28524;DHT22;15734;50.904;6.922;2022-09-21T04:04:41;7.20;99.90
28524;DHT22;15734;50.904;6.922;2022-09-21T04:07:07;7.20;99.90
28524;DHT22;15734;50.904;6.922;2022-09-21T04:09:32;7.20;99.90
28524;DHT22;15734;50.904;6.922;2022-09-21T04:11:58;7.10;99.90
28524;DHT22;15734;50.904;6.922;2022-09-21T04:14:24;7.10;99.90
28524;DHT22;15734;50.904;6.922;2022-09-21T04:16:49;7.10;99.90
28524;DHT22;15734;50.904;6.922;2022-09-21T04:19:16;7.00;99.90
28524;DHT22;15734;50.904;6.922;2022-09-21T04:21:42;7.00;99.90
28524;DHT22;15734;50.904;6.922;2022-09-21T04:24:07;6.90;99.90
28524;DHT22;15734;50.904;6.922;2022-09-21T04:26:34;6.80;99.90
28524;DHT22;15734;50.904;6.922;2022-09-21T04:28:59;6.70;99.90
28524;DHT22;15734;50.904;6.922;2022-09-21T04:31:26;6.60;99.90
28524;DHT22;15734;50.904;6.922;2022-09-21T04:33:54;6.60;99.90
28524;DHT22;15734;50.904;6.922;2022-09-21T04:36:21;6.60;99.90
28524;DHT22;15734;50.904;6.922;2022-09-21T04:38:48;6.70;99.90
28524;DHT22;15734;50.904;6.922;2022-09-21T04:41:14;6.70;99.90
28524;DHT22;15734;50.904;6.922;2022-09-21T04:43:41;6.70;99.90
28524;DHT22;15734;50.904;6.922;2022-09-21T04:46:09;6.80;99.90
28524;DHT22;15734;50.904;6.922;2022-09-21T04:48:35;6.90;99.90
28524;DHT22;15734;50.904;6.922;2022-09-21T04:51:02;6.90;99.90
28524;DHT22;15734;50.904;6.922;2022-09-21T04:53:29;6.90;99.90
28524;DHT22;15734;50.904;6.922;2022-09-21T04:55:54;6.90;99.90
28524;DHT22;15734;50.904;6.922;2022-09-21T04:58:21;7.00;99.90
28524;DHT22;15734;50.904;6.922;2022-09-21T05:00:51;7.10;99.90
28524;DHT22;15734;50.904;6.922;2022-09-21T05:03:18;7.10;99.90
28524;DHT22;15734;50.904;6.922;2022-09-21T05:05:52;7.10;99.90
28524;DHT22;15734;50.904;6.922;2022-09-21T05:08:18;7.20;99.90
28524;DHT22;15734;50.904;6.922;2022-09-21T05:11:08;7.10;99.90
28524;DHT22;15734;50.904;6.922;2022-09-21T05:13:35;7.20;99.90
28524;DHT22;15734;50.904;6.922;2022-09-21T05:16:01;7.20;99.90
28524;DHT22;15734;50.904;6.922;2022-09-21T05:18:27;7.20;99.90
28524;DHT22;15734;50.904;6.922;2022-09-21T05:20:58;7.20;99.90
28524;DHT22;15734;50.904;6.922;2022-09-21T05:23:24;7.20;99.90
28524;DHT22;15734;50.904;6.922;2022-09-21T05:25:51;7.30;99.90
28524;DHT22;15734;50.904;6.922;2022-09-21T05:28:17;7.40;99.90
28524;DHT22;15734;50.904;6.922;2022-09-21T05:30:45;7.50;99.90
28524;DHT22;15734;50.904;6.922;2022-09-21T05:33:15;7.50;99.90
28524;DHT22;15734;50.904;6.922;2022-09-21T05:38:44;7.60;99.90
28524;DHT22;15734;50.904;6.922;2022-09-21T05:41:10;7.60;99.90
28524;DHT22;15734;50.904;6.922;2022-09-21T05:43:36;7.60;99.90
28524;DHT22;15734;50.904;6.922;2022-09-21T05:46:19;7.60;99.90
28524;DHT22;15734;50.904;6.922;2022-09-21T05:48:59;7.60;99.90
28524;DHT22;15734;50.904;6.922;2022-09-21T05:54:46;7.70;99.90
28524;DHT22;15734;50.904;6.922;2022-09-21T06:00:19;7.60;99.90
28524;DHT22;15734;50.904;6.922;2022-09-21T06:03:03;7.70;99.90
28524;DHT22;15734;50.904;6.922;2022-09-21T06:05:33;7.70;99.90
28524;DHT22;15734;50.904;6.922;2022-09-21T06:07:59;7.80;99.90
28524;DHT22;15734;50.904;6.922;2022-09-21T06:10:26;7.90;99.90
28524;DHT22;15734;50.904;6.922;2022-09-21T06:12:54;8.00;99.90
28524;DHT22;15734;50.904;6.922;2022-09-21T06:15:19;8.10;99.90
28524;DHT22;15734;50.904;6.922;2022-09-21T06:17:45;8.10;99.90
28524;DHT22;15734;50.904;6.922;2022-09-21T06:20:10;8.10;99.90
28524;DHT22;15734;50.904;6.922;2022-09-21T06:22:36;8.10;99.90
28524;DHT22;15734;50.904;6.922;2022-09-21T06:25:01;8.10;99.90
28524;DHT22;15734;50.904;6.922;2022-09-21T06:27:27;8.10;99.90
28524;DHT22;15734;50.904;6.922;2022-09-21T06:29:53;8.20;99.90
28524;DHT22;15734;50.904;6.922;2022-09-21T06:32:19;8.20;99.90
28524;DHT22;15734;50.904;6.922;2022-09-21T06:34:44;8.20;99.90
28524;DHT22;15734;50.904;6.922;2022-09-21T06:37:10;8.40;99.90
28524;DHT22;15734;50.904;6.922;2022-09-21T06:39:35;8.30;99.90
28524;DHT22;15734;50.904;6.922;2022-09-21T06:42:01;8.40;99.90
28524;DHT22;15734;50.904;6.922;2022-09-21T06:44:27;8.30;99.90
28524;DHT22;15734;50.904;6.922;2022-09-21T06:46:54;8.40;99.90
28524;DHT22;15734;50.904;6.922;2022-09-21T06:49:19;8.40;99.90
28524;DHT22;15734;50.904;6.922;2022-09-21T06:51:46;8.50;99.90
28524;DHT22;15734;50.904;6.922;2022-09-21T06:54:12;8.50;99.90
28524;DHT22;15734;50.904;6.922;2022-09-21T06:56:37;8.50;99.90
28524;DHT22;15734;50.904;6.922;2022-09-21T06:59:03;8.60;99.90
28524;DHT22;15734;50.904;6.922;2022-09-21T07:01:28;8.70;99.90
28524;DHT22;15734;50.904;6.922;2022-09-21T07:03:54;8.60;99.90
28524;DHT22;15734;50.904;6.922;2022-09-21T07:06:19;8.60;99.90
28524;DHT22;15734;50.904;6.922;2022-09-21T07:08:51;8.70;99.90
28524;DHT22;15734;50.904;6.922;2022-09-21T07:11:17;8.90;99.90
28524;DHT22;15734;50.904;6.922;2022-09-21T07:13:43;9.00;99.90
28524;DHT22;15734;50.904;6.922;2022-09-21T07:16:09;9.00;99.90
28524;DHT22;15734;50.904;6.922;2022-09-21T07:18:36;9.10;99.90
28524;DHT22;15734;50.904;6.922;2022-09-21T07:21:04;9.20;99.90
28524;DHT22;15734;50.904;6.922;2022-09-21T07:23:31;9.20;99.90
28524;DHT22;15734;50.904;6.922;2022-09-21T07:26:00;9.10;99.90
28524;DHT22;15734;50.904;6.922;2022-09-21T07:28:26;9.20;99.90
28524;DHT22;15734;50.904;6.922;2022-09-21T07:30:52;9.20;99.90
28524;DHT22;15734;50.904;6.922;2022-09-21T07:33:17;9.30;99.90
28524;DHT22;15734;50.904;6.922;2022-09-21T07:35:53;9.40;99.90
28524;DHT22;15734;50.904;6.922;2022-09-21T07:38:21;9.50;99.90
28524;DHT22;15734;50.904;6.922;2022-09-21T07:40:47;9.70;99.90
28524;DHT22;15734;50.904;6.922;2022-09-21T07:43:13;9.70;99.90
28524;DHT22;15734;50.904;6.922;2022-09-21T07:45:39;9.80;99.90
28524;DHT22;15734;50.904;6.922;2022-09-21T07:48:05;9.70;99.90
28524;DHT22;15734;50.904;6.922;2022-09-21T07:50:31;9.70;99.90
28524;DHT22;15734;50.904;6.922;2022-09-21T07:52:58;9.80;99.90
28524;DHT22;15734;50.904;6.922;2022-09-21T07:55:25;9.80;99.90
28524;DHT22;15734;50.904;6.922;2022-09-21T07:57:50;9.70;99.90
28524;DHT22;15734;50.904;6.922;2022-09-21T08:00:35;9.80;99.90
28524;DHT22;15734;50.904;6.922;2022-09-21T08:03:00;9.80;99.90
28524;DHT22;15734;50.904;6.922;2022-09-21T08:05:26;9.80;99.90
28524;DHT22;15734;50.904;6.922;2022-09-21T08:07:54;9.90;99.90
28524;DHT22;15734;50.904;6.922;2022-09-21T08:10:21;10.00;99.90
28524;DHT22;15734;50.904;6.922;2022-09-21T08:12:47;10.00;99.90
28524;DHT22;15734;50.904;6.922;2022-09-21T08:15:12;10.10;99.90
28524;DHT22;15734;50.904;6.922;2022-09-21T08:17:39;10.20;99.90
28524;DHT22;15734;50.904;6.922;2022-09-21T08:20:05;10.10;99.90
28524;DHT22;15734;50.904;6.922;2022-09-21T08:22:31;10.30;99.90
28524;DHT22;15734;50.904;6.922;2022-09-21T08:24:56;10.00;99.90
28524;DHT22;15734;50.904;6.922;2022-09-21T08:27:22;10.20;99.90
28524;DHT22;15734;50.904;6.922;2022-09-21T08:29:49;10.20;99.90
28524;DHT22;15734;50.904;6.922;2022-09-21T08:32:15;10.30;99.90
28524;DHT22;15734;50.904;6.922;2022-09-21T08:34:41;10.40;99.90
28524;DHT22;15734;50.904;6.922;2022-09-21T08:37:06;10.40;99.90
28524;DHT22;15734;50.904;6.922;2022-09-21T08:39:32;10.60;99.90
28524;DHT22;15734;50.904;6.922;2022-09-21T08:42:12;10.50;99.90
28524;DHT22;15734;50.904;6.922;2022-09-21T08:44:48;10.70;99.90
28524;DHT22;15734;50.904;6.922;2022-09-21T08:47:32;10.90;99.90
28524;DHT22;15734;50.904;6.922;2022-09-21T08:50:00;11.10;99.90
28524;DHT22;15734;50.904;6.922;2022-09-21T08:52:26;11.10;99.90
28524;DHT22;15734;50.904;6.922;2022-09-21T08:55:15;11.10;99.90
28524;DHT22;15734;50.904;6.922;2022-09-21T08:57:41;11.20;99.90
28524;DHT22;15734;50.904;6.922;2022-09-21T09:00:13;11.30;99.90
28524;DHT22;15734;50.904;6.922;2022-09-21T09:08:02;11.30;99.90
28524;DHT22;15734;50.904;6.922;2022-09-21T09:13:50;11.50;99.90
28524;DHT22;15734;50.904;6.922;2022-09-21T09:18:56;11.70;99.90
28524;DHT22;15734;50.904;6.922;2022-09-21T09:21:28;11.80;99.90
28524;DHT22;15734;50.904;6.922;2022-09-21T09:23:57;12.00;99.90
28524;DHT22;15734;50.904;6.922;2022-09-21T09:26:41;12.10;99.90
28524;DHT22;15734;50.904;6.922;2022-09-21T09:29:15;12.20;99.90
28524;DHT22;15734;50.904;6.922;2022-09-21T09:31:43;12.40;99.90
28524;DHT22;15734;50.904;6.922;2022-09-21T09:34:43;12.50;99.90
28524;DHT22;15734;50.904;6.922;2022-09-21T09:37:12;12.60;99.90
28524;DHT22;15734;50.904;6.922;2022-09-21T09:39:40;12.80;99.90
28524;DHT22;15734;50.904;6.922;2022-09-21T09:48:01;13.30;99.90
28524;DHT22;15734;50.904;6.922;2022-09-21T09:50:36;13.30;99.90
28524;DHT22;15734;50.904;6.922;2022-09-21T09:55:38;13.80;99.90
28524;DHT22;15734;50.904;6.922;2022-09-21T09:58:18;13.90;99.90
28524;DHT22;15734;50.904;6.922;2022-09-21T10:00:45;14.20;99.90
28524;DHT22;15734;50.904;6.922;2022-09-21T10:03:17;14.50;99.90
28524;DHT22;15734;50.904;6.922;2022-09-21T10:05:43;14.90;99.90
28524;DHT22;15734;50.904;6.922;2022-09-21T10:11:02;15.50;99.90
28524;DHT22;15734;50.904;6.922;2022-09-21T10:13:30;15.70;99.90
28524;DHT22;15734;50.904;6.922;2022-09-21T10:16:05;15.80;99.90
28524;DHT22;15734;50.904;6.922;2022-09-21T10:18:57;16.00;99.90
28524;DHT22;15734;50.904;6.922;2022-09-21T10:23:59;16.20;99.90
28524;DHT22;15734;50.904;6.922;2022-09-21T10:26:41;15.90;99.90
28524;DHT22;15734;50.904;6.922;2022-09-21T10:32:02;16.20;99.90
28524;DHT22;15734;50.904;6.922;2022-09-21T10:34:31;16.20;99.90
28524;DHT22;15734;50.904;6.922;2022-09-21T10:36:59;16.10;99.90
28524;DHT22;15734;50.904;6.922;2022-09-21T10:39:30;16.10;99.90
28524;DHT22;15734;50.904;6.922;2022-09-21T10:44:39;16.20;99.90
28524;DHT22;15734;50.904;6.922;2022-09-21T10:50:00;16.50;99.90
28524;DHT22;15734;50.904;6.922;2022-09-21T10:52:37;16.50;99.90
28524;DHT22;15734;50.904;6.922;2022-09-21T10:55:03;16.60;99.90
28524;DHT22;15734;50.904;6.922;2022-09-21T10:57:32;16.60;99.90
28524;DHT22;15734;50.904;6.922;2022-09-21T11:00:11;16.70;99.90
28524;DHT22;15734;50.904;6.922;2022-09-21T11:02:54;16.80;99.90
28524;DHT22;15734;50.904;6.922;2022-09-21T11:05:27;16.90;99.90
28524;DHT22;15734;50.904;6.922;2022-09-21T11:10:37;17.40;99.90
28524;DHT22;15734;50.904;6.922;2022-09-21T11:13:27;17.10;99.90
28524;DHT22;15734;50.904;6.922;2022-09-21T11:16:03;17.20;99.90
28524;DHT22;15734;50.904;6.922;2022-09-21T11:18:56;17.40;99.90
28524;DHT22;15734;50.904;6.922;2022-09-21T11:21:53;17.70;99.90
28524;DHT22;15734;50.904;6.922;2022-09-21T11:29:27;18.00;99.90
28524;DHT22;15734;50.904;6.922;2022-09-21T11:32:02;18.20;99.90
28524;DHT22;15734;50.904;6.922;2022-09-21T11:39:58;18.70;99.90
28524;DHT22;15734;50.904;6.922;2022-09-21T11:42:34;18.90;99.90
28524;DHT22;15734;50.904;6.922;2022-09-21T11:45:02;18.70;99.90
28524;DHT22;15734;50.904;6.922;2022-09-21T11:50:40;18.90;99.90
28524;DHT22;15734;50.904;6.922;2022-09-21T11:53:19;19.10;99.90
28524;DHT22;15734;50.904;6.922;2022-09-21T11:59:04;19.60;99.90
28524;DHT22;15734;50.904;6.922;2022-09-21T12:12:40;19.70;99.90
28524;DHT22;15734;50.904;6.922;2022-09-21T12:22:56;19.50;99.90
28524;DHT22;15734;50.904;6.922;2022-09-21T12:25:55;19.40;99.90
28524;DHT22;15734;50.904;6.922;2022-09-21T12:30:55;19.90;99.90
28524;DHT22;15734;50.904;6.922;2022-09-21T12:33:44;20.20;99.90
28524;DHT22;15734;50.904;6.922;2022-09-21T12:36:39;20.50;99.90
28524;DHT22;15734;50.904;6.922;2022-09-21T12:39:20;21.00;99.90
28524;DHT22;15734;50.904;6.922;2022-09-21T12:41:53;20.80;99.90
28524;DHT22;15734;50.904;6.922;2022-09-21T12:44:38;21.10;99.90
28524;DHT22;15734;50.904;6.922;2022-09-21T12:50:02;20.80;99.90
28524;DHT22;15734;50.904;6.922;2022-09-21T12:52:31;21.10;99.90
28524;DHT22;15734;50.904;6.922;2022-09-21T13:01:11;21.40;99.90
28524;DHT22;15734;50.904;6.922;2022-09-21T13:08:49;21.40;99.90
28524;DHT22;15734;50.904;6.922;2022-09-21T13:11:15;21.70;99.90
28524;DHT22;15734;50.904;6.922;2022-09-21T13:13:49;21.40;99.90
28524;DHT22;15734;50.904;6.922;2022-09-21T13:16:34;21.70;99.90
28524;DHT22;15734;50.904;6.922;2022-09-21T13:19:24;21.90;99.40
28524;DHT22;15734;50.904;6.922;2022-09-21T13:22:11;21.80;96.00
28524;DHT22;15734;50.904;6.922;2022-09-21T13:24:56;21.30;95.60
28524;DHT22;15734;50.904;6.922;2022-09-21T13:30:40;21.50;99.10
28524;DHT22;15734;50.904;6.922;2022-09-21T13:33:30;21.80;96.50
28524;DHT22;15734;50.904;6.922;2022-09-21T13:40:58;22.20;94.90
28524;DHT22;15734;50.904;6.922;2022-09-21T13:43:43;22.10;96.30
28524;DHT22;15734;50.904;6.922;2022-09-21T13:54:28;21.90;93.50
28524;DHT22;15734;50.904;6.922;2022-09-21T13:57:04;21.80;94.50
28524;DHT22;15734;50.904;6.922;2022-09-21T13:59:35;21.70;95.40
28524;DHT22;15734;50.904;6.922;2022-09-21T14:02:19;21.10;97.80
28524;DHT22;15734;50.904;6.922;2022-09-21T14:04:47;21.20;97.60
28524;DHT22;15734;50.904;6.922;2022-09-21T14:07:15;21.20;98.20
28524;DHT22;15734;50.904;6.922;2022-09-21T14:09:51;20.90;97.40
28524;DHT22;15734;50.904;6.922;2022-09-21T14:12:22;20.40;96.60
28524;DHT22;15734;50.904;6.922;2022-09-21T14:15:09;20.90;94.50
28524;DHT22;15734;50.904;6.922;2022-09-21T14:17:39;20.90;93.20
28524;DHT22;15734;50.904;6.922;2022-09-21T14:20:27;20.70;93.40
28524;DHT22;15734;50.904;6.922;2022-09-21T14:23:22;20.80;94.90
28524;DHT22;15734;50.904;6.922;2022-09-21T14:30:59;20.50;92.60
28524;DHT22;15734;50.904;6.922;2022-09-21T14:33:29;20.60;94.70
28524;DHT22;15734;50.904;6.922;2022-09-21T14:35:58;20.40;93.50
28524;DHT22;15734;50.904;6.922;2022-09-21T14:38:29;20.10;94.00
28524;DHT22;15734;50.904;6.922;2022-09-21T14:41:02;20.10;92.80
28524;DHT22;15734;50.904;6.922;2022-09-21T14:43:32;19.80;93.80
28524;DHT22;15734;50.904;6.922;2022-09-21T14:56:40;19.50;93.00
28524;DHT22;15734;50.904;6.922;2022-09-21T15:01:58;18.90;98.40
28524;DHT22;15734;50.904;6.922;2022-09-21T15:04:46;19.30;99.90
28524;DHT22;15734;50.904;6.922;2022-09-21T15:11:25;19.50;99.90
28524;DHT22;15734;50.904;6.922;2022-09-21T15:16:47;19.90;99.90
28524;DHT22;15734;50.904;6.922;2022-09-21T15:21:45;19.50;99.90
28524;DHT22;15734;50.904;6.922;2022-09-21T15:26:50;19.60;99.90
28524;DHT22;15734;50.904;6.922;2022-09-21T15:29:23;19.50;99.90
28524;DHT22;15734;50.904;6.922;2022-09-21T15:31:50;19.40;99.90
28524;DHT22;15734;50.904;6.922;2022-09-21T15:34:16;19.50;99.90
28524;DHT22;15734;50.904;6.922;2022-09-21T15:36:42;19.50;99.90
28524;DHT22;15734;50.904;6.922;2022-09-21T15:39:21;19.30;99.90
28524;DHT22;15734;50.904;6.922;2022-09-21T15:41:47;19.20;99.90
28524;DHT22;15734;50.904;6.922;2022-09-21T15:44:23;19.00;99.90
28524;DHT22;15734;50.904;6.922;2022-09-21T15:46:52;18.90;99.90
28524;DHT22;15734;50.904;6.922;2022-09-21T15:49:24;18.80;99.90
28524;DHT22;15734;50.904;6.922;2022-09-21T15:51:58;18.50;99.90
28524;DHT22;15734;50.904;6.922;2022-09-21T15:54:30;18.40;99.90
28524;DHT22;15734;50.904;6.922;2022-09-21T15:57:04;18.20;99.90
28524;DHT22;15734;50.904;6.922;2022-09-21T15:59:31;18.00;99.90
28524;DHT22;15734;50.904;6.922;2022-09-21T16:01:59;17.90;99.90
28524;DHT22;15734;50.904;6.922;2022-09-21T16:04:34;17.70;99.90
28524;DHT22;15734;50.904;6.922;2022-09-21T16:07:05;17.70;99.90
28524;DHT22;15734;50.904;6.922;2022-09-21T16:14:52;17.40;99.90
28524;DHT22;15734;50.904;6.922;2022-09-21T16:17:26;17.30;99.90
28524;DHT22;15734;50.904;6.922;2022-09-21T16:22:36;17.30;99.90
28524;DHT22;15734;50.904;6.922;2022-09-21T16:25:20;17.30;99.90
28524;DHT22;15734;50.904;6.922;2022-09-21T16:30:49;17.10;99.90
28524;DHT22;15734;50.904;6.922;2022-09-21T16:38:51;16.80;99.90
28524;DHT22;15734;50.904;6.922;2022-09-21T16:41:21;16.60;99.90
28524;DHT22;15734;50.904;6.922;2022-09-21T16:43:48;16.60;99.90
28524;DHT22;15734;50.904;6.922;2022-09-21T16:46:15;16.60;99.90
28524;DHT22;15734;50.904;6.922;2022-09-21T16:48:42;16.50;99.90
28524;DHT22;15734;50.904;6.922;2022-09-21T16:51:13;16.50;99.90
28524;DHT22;15734;50.904;6.922;2022-09-21T16:53:39;16.40;99.90
28524;DHT22;15734;50.904;6.922;2022-09-21T16:56:11;16.30;99.90
28524;DHT22;15734;50.904;6.922;2022-09-21T16:58:38;16.20;99.90
28524;DHT22;15734;50.904;6.922;2022-09-21T17:01:07;16.10;99.90
28524;DHT22;15734;50.904;6.922;2022-09-21T17:03:34;16.00;99.90
28524;DHT22;15734;50.904;6.922;2022-09-21T17:05:59;15.90;99.90
28524;DHT22;15734;50.904;6.922;2022-09-21T17:08:25;15.90;99.90
28524;DHT22;15734;50.904;6.922;2022-09-21T17:10:54;15.80;99.90
28524;DHT22;15734;50.904;6.922;2022-09-21T17:13:20;15.70;99.90
28524;DHT22;15734;50.904;6.922;2022-09-21T17:15:46;15.60;99.90
28524;DHT22;15734;50.904;6.922;2022-09-21T17:18:13;15.40;99.90
28524;DHT22;15734;50.904;6.922;2022-09-21T17:20:41;15.20;99.90
28524;DHT22;15734;50.904;6.922;2022-09-21T17:23:07;15.00;99.90
28524;DHT22;15734;50.904;6.922;2022-09-21T17:25:34;14.80;99.90
28524;DHT22;15734;50.904;6.922;2022-09-21T17:28:01;14.60;99.90
28524;DHT22;15734;50.904;6.922;2022-09-21T17:30:27;14.50;99.90
28524;DHT22;15734;50.904;6.922;2022-09-21T17:32:53;14.30;99.90
28524;DHT22;15734;50.904;6.922;2022-09-21T17:35:46;14.10;99.90
28524;DHT22;15734;50.904;6.922;2022-09-21T17:38:12;14.00;99.90
28524;DHT22;15734;50.904;6.922;2022-09-21T17:40:38;13.80;99.90
28524;DHT22;15734;50.904;6.922;2022-09-21T17:45:56;13.50;99.90
28524;DHT22;15734;50.904;6.922;2022-09-21T17:48:28;13.40;99.90
28524;DHT22;15734;50.904;6.922;2022-09-21T17:50:53;13.20;99.90
28524;DHT22;15734;50.904;6.922;2022-09-21T17:53:19;13.20;99.90
28524;DHT22;15734;50.904;6.922;2022-09-21T17:59:03;12.90;99.90
28524;DHT22;15734;50.904;6.922;2022-09-21T18:01:36;12.80;99.90
28524;DHT22;15734;50.904;6.922;2022-09-21T18:04:05;12.80;99.90
28524;DHT22;15734;50.904;6.922;2022-09-21T18:06:31;12.70;99.90
28524;DHT22;15734;50.904;6.922;2022-09-21T18:08:59;12.60;99.90
28524;DHT22;15734;50.904;6.922;2022-09-21T18:16:54;12.30;99.90
28524;DHT22;15734;50.904;6.922;2022-09-21T18:19:39;12.30;99.90
28524;DHT22;15734;50.904;6.922;2022-09-21T18:22:34;12.20;99.90
28524;DHT22;15734;50.904;6.922;2022-09-21T18:25:11;12.00;99.90
28524;DHT22;15734;50.904;6.922;2022-09-21T18:27:38;11.90;99.90
28524;DHT22;15734;50.904;6.922;2022-09-21T18:30:04;11.80;99.90
28524;DHT22;15734;50.904;6.922;2022-09-21T18:35:20;11.60;99.90
28524;DHT22;15734;50.904;6.922;2022-09-21T18:37:59;11.50;99.90
28524;DHT22;15734;50.904;6.922;2022-09-21T18:48:53;11.30;99.90
28524;DHT22;15734;50.904;6.922;2022-09-21T18:53:52;11.10;99.90
28524;DHT22;15734;50.904;6.922;2022-09-21T18:56:21;11.10;99.90
28524;DHT22;15734;50.904;6.922;2022-09-21T18:58:47;11.00;99.90
28524;DHT22;15734;50.904;6.922;2022-09-21T19:01:14;11.00;99.90
28524;DHT22;15734;50.904;6.922;2022-09-21T19:03:46;10.90;99.90
28524;DHT22;15734;50.904;6.922;2022-09-21T19:09:30;10.90;99.90
28524;DHT22;15734;50.904;6.922;2022-09-21T19:25:43;10.70;99.90
28524;DHT22;15734;50.904;6.922;2022-09-21T19:30:45;10.60;99.90
28524;DHT22;15734;50.904;6.922;2022-09-21T19:33:32;10.50;99.90
28524;DHT22;15734;50.904;6.922;2022-09-21T19:35:58;10.40;99.90
28524;DHT22;15734;50.904;6.922;2022-09-21T19:38:29;10.40;99.90
28524;DHT22;15734;50.904;6.922;2022-09-21T19:41:17;10.30;99.90
28524;DHT22;15734;50.904;6.922;2022-09-21T19:43:53;10.20;99.90
28524;DHT22;15734;50.904;6.922;2022-09-21T19:46:32;10.20;99.90
28524;DHT22;15734;50.904;6.922;2022-09-21T19:51:42;10.10;99.90
28524;DHT22;15734;50.904;6.922;2022-09-21T19:54:13;10.10;99.90
28524;DHT22;15734;50.904;6.922;2022-09-21T19:56:58;10.00;99.90